Arenas Valley, New Mexico
Current Conditions -  °F | °C
As of 3:35 AM on Thursday 18 Dec 2014 (Local Time) from KSVC Reporting Station
Overcast Overcast  
Wind Chill: 31°   Ceiling: 3400
Heat Index: 37°   Visibility: 10mi
Dew Point: 36°   Wind: 8mph
Humidity: 93%   Direction: 300°WNW
Pressure: 30.16"   Gusts: NA
Location:  32.79°N, 108.18°W
Report Text: KSVC 181035Z AUTO 30007KT 10SM BKN034 OVC060 03/02 A3016 RMK AO2
Loading
Personal Weather Stations






























Interactive Weather Map New forecast layout! Learn more

10-Day Weather Forecast

Advertisements
Track Severe Weather on mobile